createdAt,value
2022-09-25T00:02:56.931Z,8.31
2022-09-25T00:08:00.377Z,8.27
2022-09-25T00:13:03.783Z,8.16
2022-09-25T00:18:07.100Z,8.12
2022-09-25T00:23:10.507Z,8.20
2022-09-25T00:28:17.670Z,8.27
2022-09-25T00:33:21.638Z,8.38
2022-09-25T00:38:24.950Z,8.49
2022-09-25T00:43:50.886Z,8.55
2022-09-25T00:49:00.133Z,8.62
2022-09-25T00:54:06.842Z,8.63
2022-09-25T00:59:14.742Z,8.64
2022-09-25T01:04:18.665Z,8.69
2022-09-25T01:09:22.694Z,8.77
2022-09-25T01:14:27.232Z,8.85
2022-09-25T01:19:55.120Z,8.82
2022-09-25T01:25:17.376Z,8.91
2022-09-25T01:30:21.710Z,9.02
2022-09-25T01:35:31.573Z,9.06
2022-09-25T01:41:06.122Z,9.14
2022-09-25T01:46:22.999Z,9.22
2022-09-25T01:51:50.422Z,9.26
2022-09-25T01:56:59.881Z,9.32
2022-09-25T02:02:06.334Z,9.26
2022-09-25T02:07:14.691Z,9.23
2022-09-25T02:12:26.808Z,9.24
2022-09-25T02:17:55.415Z,9.27
2022-09-25T02:23:11.546Z,9.26
2022-09-25T02:28:14.938Z,9.23
2022-09-25T02:33:18.351Z,9.22
2022-09-25T02:38:22.491Z,9.24
2022-09-25T02:44:03.177Z,9.34
2022-09-25T02:49:22.963Z,9.42
2022-09-25T02:54:36.003Z,9.49
2022-09-25T02:59:46.582Z,9.54
2022-09-25T03:04:51.635Z,9.56
2022-09-25T03:09:58.114Z,9.56
2022-09-25T03:15:01.431Z,9.46
2022-09-25T03:20:05.568Z,9.35
2022-09-25T03:25:09.178Z,9.25
2022-09-25T03:30:13.002Z,9.21
2022-09-25T03:35:16.216Z,9.24
2022-09-25T03:40:19.550Z,9.31
2022-09-25T03:45:23.140Z,9.37
2022-09-25T03:50:26.347Z,9.40
2022-09-25T03:55:29.759Z,9.41
2022-09-25T04:00:33.073Z,9.46
2022-09-25T04:05:36.492Z,9.50
2022-09-25T04:10:40.641Z,9.52
2022-09-25T04:15:44.133Z,9.56
2022-09-25T04:20:47.547Z,9.59
2022-09-25T04:25:50.751Z,9.62
2022-09-25T04:30:53.961Z,9.65
2022-09-25T04:35:57.272Z,9.67
2022-09-25T04:41:01.915Z,9.67
2022-09-25T04:46:07.766Z,9.68
2022-09-25T04:51:11.195Z,9.68
2022-09-25T04:56:16.291Z,9.70
2022-09-25T05:01:21.083Z,9.69
2022-09-25T05:06:24.512Z,9.74
2022-09-25T05:11:27.820Z,9.80
2022-09-25T05:16:31.075Z,9.89
2022-09-25T05:21:34.542Z,9.96
2022-09-25T05:26:38.263Z,10.06
2022-09-25T05:31:42.944Z,10.15
2022-09-25T05:36:46.218Z,10.23
2022-09-25T05:41:49.634Z,10.32
2022-09-25T05:46:52.845Z,10.36
2022-09-25T05:51:56.045Z,10.40
2022-09-25T05:56:59.356Z,10.49
2022-09-25T06:02:02.830Z,10.62
2022-09-25T06:07:06.389Z,10.72
2022-09-25T06:12:09.532Z,10.84
2022-09-25T06:17:12.908Z,10.95
2022-09-25T06:22:16.222Z,11.13
2022-09-25T06:27:19.426Z,11.33
2022-09-25T06:32:23.635Z,11.57
2022-09-25T06:37:26.765Z,11.69
2022-09-25T06:42:30.073Z,11.83
2022-09-25T06:47:33.411Z,11.92
2022-09-25T06:52:43.666Z,12.08
2022-09-25T06:57:47.043Z,12.42
2022-09-25T07:03:08.851Z,12.79
2022-09-25T07:08:16.570Z,13.24
2022-09-25T07:13:24.959Z,13.64
2022-09-25T07:18:29.754Z,13.97
2022-09-25T07:23:34.112Z,14.18
2022-09-25T07:28:39.603Z,14.52
2022-09-25T07:33:43.618Z,14.84
2022-09-25T07:38:50.850Z,15.14
2022-09-25T07:49:22.237Z,15.66
2022-09-25T07:54:26.060Z,15.89
2022-09-25T07:59:29.469Z,16.05
2022-09-25T08:04:32.885Z,16.09
2022-09-25T08:09:36.303Z,16.11
2022-09-25T08:14:40.019Z,16.13
2022-09-25T08:19:43.432Z,16.16
2022-09-25T08:24:46.642Z,16.19
2022-09-25T08:29:49.967Z,16.17
2022-09-25T08:34:54.495Z,16.25
2022-09-25T08:40:01.184Z,16.30
2022-09-25T08:45:31.728Z,16.27
2022-09-25T08:50:36.207Z,16.40
2022-09-25T08:56:00.880Z,16.48
2022-09-25T09:01:10.522Z,16.51
2022-09-25T09:06:16.331Z,16.64
2022-09-25T09:11:36.513Z,16.66
2022-09-25T09:16:45.865Z,16.73
2022-09-25T09:22:02.080Z,16.82
2022-09-25T09:27:11.431Z,16.93
2022-09-25T09:32:32.868Z,17.04
2022-09-25T09:38:05.472Z,17.06
2022-09-25T09:43:17.686Z,17.04
2022-09-25T09:48:25.403Z,16.96
2022-09-25T09:53:40.540Z,16.86
2022-09-25T09:58:51.784Z,16.84
2022-09-25T10:04:17.625Z,16.73
2022-09-25T10:09:21.143Z,16.58
2022-09-25T10:14:30.800Z,16.53
2022-09-25T10:19:49.366Z,16.61
2022-09-25T10:25:03.736Z,16.73
2022-09-25T10:30:16.057Z,16.96
2022-09-25T10:35:51.420Z,17.25
2022-09-25T10:41:05.382Z,17.53
2022-09-25T10:46:13.432Z,17.75
2022-09-25T10:51:21.619Z,17.87
2022-09-25T10:56:36.203Z,18.04
2022-09-25T11:01:43.145Z,18.16
2022-09-25T11:06:53.270Z,18.20
2022-09-25T11:12:13.988Z,18.23
2022-09-25T11:17:54.473Z,18.28
2022-09-25T11:23:18.977Z,18.33
2022-09-25T11:28:50.038Z,18.37
2022-09-25T11:34:12.910Z,18.50
2022-09-25T11:39:44.174Z,18.84
2022-09-25T11:45:22.813Z,19.08
2022-09-25T11:50:43.306Z,19.31
2022-09-25T11:56:07.629Z,19.59
2022-09-25T12:01:21.423Z,20.26
2022-09-25T12:06:55.417Z,20.94
2022-09-25T12:12:17.386Z,21.49
2022-09-25T12:17:33.378Z,22.05
2022-09-25T12:22:52.865Z,22.48
2022-09-25T12:28:01.816Z,23.09
2022-09-25T12:33:23.138Z,23.21
2022-09-25T12:38:44.780Z,23.11
2022-09-25T12:44:27.269Z,22.96
2022-09-25T12:49:35.227Z,22.74
2022-09-25T12:54:55.644Z,22.40
2022-09-25T13:00:09.605Z,22.01
2022-09-25T13:05:38.203Z,21.65
2022-09-25T13:10:52.677Z,20.95
2022-09-25T13:16:03.231Z,20.46
2022-09-25T13:21:25.206Z,20.08
2022-09-25T13:26:30.473Z,19.65
2022-09-25T13:31:37.378Z,19.29
2022-09-25T13:36:55.926Z,19.02
2022-09-25T13:42:04.180Z,18.65
2022-09-25T13:47:25.599Z,18.37
2022-09-25T13:52:31.051Z,18.10
2022-09-25T13:57:59.658Z,17.75
2022-09-25T14:03:03.955Z,17.38
2022-09-25T14:08:09.347Z,17.21
2022-09-25T14:13:17.165Z,16.92
2022-09-25T14:18:25.592Z,16.56
2022-09-25T14:23:33.586Z,16.21
2022-09-25T14:28:47.987Z,15.93
2022-09-25T14:34:30.105Z,15.70
2022-09-25T14:39:42.426Z,15.58
2022-09-25T14:45:04.477Z,15.53
2022-09-25T14:50:22.532Z,15.51
2022-09-25T14:55:29.427Z,15.46
2022-09-25T15:00:32.843Z,15.38
2022-09-25T15:05:37.811Z,15.32
2022-09-25T15:10:41.512Z,15.24
2022-09-25T15:16:13.043Z,15.18
2022-09-25T15:21:31.694Z,15.16
2022-09-25T15:26:41.518Z,15.14
2022-09-25T15:31:51.078Z,15.11
2022-09-25T15:36:54.696Z,15.07
2022-09-25T15:41:57.854Z,15.01
2022-09-25T15:47:02.442Z,14.97
2022-09-25T15:52:32.785Z,14.93
2022-09-25T15:57:36.811Z,14.86
2022-09-25T16:03:11.458Z,14.85
2022-09-25T16:08:18.150Z,14.86
2022-09-25T16:13:24.906Z,14.85
2022-09-25T16:18:32.414Z,14.77
2022-09-25T16:23:38.627Z,14.77
2022-09-25T16:28:50.334Z,14.70
2022-09-25T16:33:57.846Z,14.61
2022-09-25T16:39:10.331Z,14.48
2022-09-25T16:44:28.921Z,14.36
2022-09-25T16:49:35.117Z,14.19
2022-09-25T16:54:38.940Z,14.12
2022-09-25T16:59:42.249Z,14.10
2022-09-25T17:04:45.454Z,14.10
2022-09-25T17:09:49.281Z,14.11
2022-09-25T17:14:53.415Z,14.09
2022-09-25T17:19:56.516Z,14.05
2022-09-25T17:25:02.838Z,14.01
2022-09-25T17:30:06.687Z,13.95
2022-09-25T17:35:25.701Z,13.89
2022-09-25T17:40:31.239Z,13.77
2022-09-25T17:45:43.484Z,13.68
2022-09-25T17:50:46.794Z,13.58
2022-09-25T17:55:53.752Z,13.48
2022-09-25T18:01:02.222Z,13.39
2022-09-25T18:06:05.942Z,13.33
2022-09-25T18:11:11.409Z,13.29
2022-09-25T18:16:25.755Z,13.23
2022-09-25T18:21:47.926Z,13.21
2022-09-25T18:26:54.821Z,13.22
2022-09-25T18:31:58.438Z,13.18
2022-09-25T18:37:01.647Z,13.11
2022-09-25T18:42:05.348Z,13.05
2022-09-25T18:47:08.503Z,13.02
2022-09-25T18:52:12.091Z,13.04
2022-09-25T18:57:16.786Z,13.04
2022-09-25T19:02:25.715Z,12.99
2022-09-25T19:07:29.750Z,12.99
2022-09-25T19:12:33.055Z,13.00
2022-09-25T19:17:36.326Z,12.93
2022-09-25T19:22:41.379Z,12.90
2022-09-25T19:27:47.762Z,12.87
2022-09-25T19:32:51.276Z,12.84
2022-09-25T19:37:56.223Z,12.82
2022-09-25T19:43:01.377Z,12.77
2022-09-25T19:48:05.199Z,12.75
2022-09-25T19:53:08.513Z,12.75
2022-09-25T19:58:11.824Z,12.74
2022-09-25T20:03:15.122Z,12.71
2022-09-25T20:08:18.444Z,12.68
2022-09-25T20:13:21.857Z,12.69
2022-09-25T20:18:26.806Z,12.72
2022-09-25T20:23:30.118Z,12.71
2022-09-25T20:28:33.327Z,12.66
2022-09-25T20:33:37.514Z,12.63
2022-09-25T20:38:41.484Z,12.61
2022-09-25T20:43:44.998Z,12.59
2022-09-25T20:48:51.434Z,12.56
2022-09-25T20:54:00.322Z,12.54
2022-09-25T20:59:04.899Z,12.53
2022-09-25T21:04:10.159Z,12.54
2022-09-25T21:09:23.476Z,12.53
2022-09-25T21:14:28.903Z,12.54
2022-09-25T21:19:32.443Z,12.50
2022-09-25T21:24:36.173Z,12.50
2022-09-25T21:29:39.680Z,12.45
2022-09-25T21:34:42.887Z,12.35
2022-09-25T21:39:46.606Z,12.33
2022-09-25T21:44:50.531Z,12.30
2022-09-25T21:49:56.614Z,12.30
2022-09-25T21:55:00.227Z,12.30
2022-09-25T22:00:04.770Z,12.30
2022-09-25T22:05:08.498Z,12.28
2022-09-25T22:10:12.000Z,12.22
2022-09-25T22:15:15.315Z,12.17
2022-09-25T22:20:18.725Z,12.16
2022-09-25T22:25:22.138Z,12.16
2022-09-25T22:30:25.384Z,12.19
2022-09-25T22:35:28.761Z,12.21
2022-09-25T22:40:32.072Z,12.15
2022-09-25T22:45:35.392Z,12.07
2022-09-25T22:50:38.694Z,11.99
2022-09-25T22:55:42.004Z,11.82
2022-09-25T23:00:48.921Z,11.67
2022-09-25T23:05:52.160Z,11.50
2022-09-25T23:11:07.207Z,11.33
2022-09-25T23:16:39.480Z,11.18
2022-09-25T23:21:43.321Z,11.03
2022-09-25T23:26:46.513Z,10.88
2022-09-25T23:31:51.262Z,10.70
2022-09-25T23:36:54.672Z,10.56
2022-09-25T23:41:58.187Z,10.43
2022-09-25T23:47:01.603Z,10.28
2022-09-25T23:52:04.821Z,10.13
2022-09-25T23:57:08.086Z,10.00
